Time;durP1;ratioP1;P1;durP2;ratioP2;P2;SDS_P1;SDS_P2;PMS_P1;PMS_P2;Temp;Humidity;BMP_temperature;BMP_pressure;BME280_temperature;BME280_humidity;BME280_pressure;Samples;Min_cycle;Max_cycle;Signal;HPM_P1;HPM_P2
2023/10/04 00:01:38;;;;;;;0.93;0.83;;;12.50;99.90;11.70;99886;;;;558111;256;24195;-75
2023/10/04 00:04:06;;;;;;;2.77;1.37;;;12.40;99.90;11.60;99882;;;;549594;258;24196;-76
2023/10/04 00:06:35;;;;;;;3.00;1.00;;;12.30;99.90;11.50;99882;;;;558128;256;24155;-75
2023/10/04 00:09:04;;;;;;;4.43;1.43;;;12.20;99.90;11.40;99892;;;;549696;257;24146;-82
2023/10/04 00:11:33;;;;;;;3.13;1.07;;;12.10;99.90;11.30;99889;;;;558477;256;24189;-76
2023/10/04 00:14:00;;;;;;;1.10;1.10;;;12.10;99.90;11.30;99889;;;;549960;257;24138;-76
2023/10/04 00:16:29;;;;;;;5.87;1.00;;;12.00;99.90;11.20;99895;;;;558594;256;24163;-78
2023/10/04 00:18:56;;;;;;;3.53;1.37;;;11.90;99.90;11.10;99905;;;;551206;257;24134;-75
2023/10/04 00:21:26;;;;;;;3.53;1.17;;;11.80;99.90;11.10;99902;;;;559697;255;24127;-77
2023/10/04 00:23:53;;;;;;;4.83;0.80;;;11.80;99.90;11.10;99914;;;;550684;253;24160;-82
2023/10/04 00:26:21;;;;;;;3.20;1.03;;;11.80;99.90;11.10;99921;;;;559399;256;24135;-80
2023/10/04 00:28:49;;;;;;;3.90;1.40;;;11.70;99.90;11.10;99933;;;;550554;258;24170;-81
2023/10/04 00:31:16;;;;;;;7.13;1.60;;;11.80;99.90;11.10;99932;;;;554523;256;38518;-76
2023/10/04 00:33:44;;;;;;;5.53;1.40;;;11.80;99.90;11.10;99954;;;;550645;258;24141;-75
2023/10/04 00:36:13;;;;;;;3.07;1.10;;;11.80;99.90;11.10;99964;;;;559246;256;24148;-75
2023/10/04 00:38:40;;;;;;;7.90;1.23;;;11.80;99.90;11.10;99971;;;;550018;257;24145;-79
2023/10/04 00:41:09;;;;;;;8.00;1.30;;;11.80;99.90;11.20;99985;;;;558695;256;24195;-74
2023/10/04 00:43:52;;;;;;;4.37;1.37;;;11.90;99.90;11.30;99985;;;;541437;260;24257;-77
2023/10/04 00:46:20;;;;;;;3.17;1.20;;;11.90;99.90;11.40;99993;;;;544682;261;24175;-74
2023/10/04 00:48:54;;;;;;;7.13;1.43;;;12.00;99.90;11.50;99997;;;;564947;251;24085;-74
2023/10/04 00:51:16;;;;;;;3.07;1.60;;;12.10;99.90;11.60;99996;;;;562124;251;24133;-77
2023/10/04 00:53:46;;;;;;;1.40;1.30;;;12.20;99.90;11.60;99995;;;;571723;250;24157;-77
2023/10/04 00:56:16;;;;;;;5.80;1.67;;;12.20;99.90;11.60;99989;;;;551528;257;24231;-77
2023/10/04 00:58:40;;;;;;;1.50;1.03;;;12.30;99.90;11.60;99999;;;;562436;252;24132;-79
2023/10/04 01:01:08;;;;;;;2.23;1.20;;;12.20;99.90;11.60;99993;;;;567554;249;24105;-79
2023/10/04 01:03:39;;;;;;;1.37;1.17;;;12.20;99.90;11.60;99990;;;;559711;256;24158;-77
2023/10/04 01:06:07;;;;;;;3.90;1.30;;;12.20;99.90;11.50;99988;;;;571144;251;24089;-77
2023/10/04 01:08:35;;;;;;;3.83;1.13;;;12.10;99.90;11.50;99986;;;;567563;249;24158;-76
2023/10/04 01:11:05;;;;;;;2.27;1.20;;;12.10;99.90;11.40;99997;;;;553363;256;24227;-75
2023/10/04 01:13:32;;;;;;;3.40;1.30;;;12.10;99.90;11.30;100001;;;;572315;246;24081;-76
2023/10/04 01:15:59;;;;;;;1.20;1.10;;;12.00;99.90;11.20;100009;;;;572262;246;24087;-76
2023/10/04 01:18:31;;;;;;;2.80;1.47;;;12.00;99.90;11.20;99998;;;;572406;250;24073;-75
2023/10/04 01:20:59;;;;;;;5.63;1.43;;;11.90;99.90;11.20;100013;;;;561267;256;24143;-75
2023/10/04 01:23:28;;;;;;;1.83;1.07;;;11.90;99.90;11.20;100004;;;;572367;251;24141;-77
2023/10/04 01:25:55;;;;;;;8.97;1.10;;;11.80;99.90;11.20;100019;;;;572189;251;24093;-76
2023/10/04 01:28:28;;;;;;;1.30;1.07;;;11.80;99.90;11.10;100014;;;;572214;249;24125;-76
2023/10/04 01:30:58;;;;;;;1.63;1.17;;;11.80;99.90;11.10;100017;;;;573483;245;24132;-77
2023/10/04 01:33:25;;;;;;;3.80;1.10;;;11.80;99.90;11.10;100029;;;;564340;251;24156;-77
2023/10/04 01:35:53;;;;;;;7.83;1.20;;;11.80;99.90;11.10;100028;;;;564580;248;24164;-76
2023/10/04 01:38:25;;;;;;;8.07;1.50;;;11.70;99.90;11.10;100015;;;;572776;246;24096;-81
2023/10/04 01:40:50;;;;;;;1.20;1.10;;;11.70;99.90;11.10;100031;;;;563226;251;24091;-77
2023/10/04 01:43:18;;;;;;;2.33;1.20;;;11.70;99.90;11.00;100025;;;;572317;247;24090;-77
2023/10/04 01:45:49;;;;;;;3.53;0.87;;;11.70;99.90;11.00;100036;;;;571840;247;24080;-79
2023/10/04 01:48:17;;;;;;;2.80;1.20;;;11.70;99.90;11.00;100023;;;;571572;251;24093;-77
2023/10/04 01:50:48;;;;;;;1.93;0.87;;;11.70;99.90;11.00;100036;;;;571465;251;24118;-77
2023/10/04 01:53:16;;;;;;;2.80;1.03;;;11.70;99.90;11.00;100034;;;;562900;251;24227;-77
2023/10/04 01:55:41;;;;;;;4.23;1.30;;;11.70;99.90;11.00;100026;;;;562762;250;24114;-77
2023/10/04 01:58:10;;;;;;;9.37;1.90;;;11.70;99.90;11.00;100037;;;;571817;251;24126;-80
2023/10/04 02:00:37;;;;;;;8.50;1.60;;;11.70;99.90;11.00;100034;;;;571760;251;24099;-80
2023/10/04 02:03:07;;;;;;;3.03;1.33;;;11.70;99.90;11.00;100031;;;;571684;250;24107;-80
2023/10/04 02:05:37;;;;;;;3.03;1.20;;;11.70;99.90;11.00;100035;;;;563446;251;24113;-78
2023/10/04 02:08:01;;;;;;;2.63;1.10;;;11.70;99.90;11.00;100034;;;;571229;251;24089;-77
2023/10/04 02:10:29;;;;;;;2.20;1.07;;;11.70;99.90;11.10;100039;;;;571948;251;24175;-83
2023/10/04 02:12:57;;;;;;;8.67;1.77;;;11.70;99.90;11.10;100033;;;;572061;251;24083;-87
2023/10/04 02:15:28;;;;;;;1.13;1.00;;;11.80;99.90;11.20;100041;;;;571686;251;24131;-86
2023/10/04 02:17:58;;;;;;;5.73;1.50;;;11.80;99.90;11.30;100056;;;;562748;250;24120;-86
2023/10/04 02:20:25;;;;;;;3.77;1.50;;;11.90;99.90;11.30;100056;;;;571211;251;24141;-84
2023/10/04 02:22:54;;;;;;;3.80;0.90;;;12.00;99.90;11.30;100063;;;;571449;251;24147;-85
2023/10/04 02:25:20;;;;;;;2.93;1.17;;;12.00;99.90;11.30;100058;;;;571338;251;24086;-84
2023/10/04 02:27:52;;;;;;;5.70;1.30;;;12.00;99.90;11.30;100061;;;;563088;251;24111;-85
2023/10/04 02:30:21;;;;;;;6.30;1.17;;;12.00;99.90;11.20;100056;;;;570973;251;24121;-83
2023/10/04 02:32:44;;;;;;;7.50;1.67;;;11.90;99.90;11.20;100070;;;;563189;251;24152;-76
2023/10/04 02:35:29;;;;;;;5.70;1.60;;;11.90;99.90;11.20;100073;;;;572442;251;24097;-87
2023/10/04 02:38:00;;;;;;;1.97;1.37;;;11.90;99.90;11.20;100064;;;;563452;251;24149;-85
2023/10/04 02:40:27;;;;;;;1.47;1.37;;;11.80;99.90;11.10;100067;;;;563174;250;24101;-84
2023/10/04 02:42:57;;;;;;;4.07;2.00;;;11.80;99.90;11.10;100076;;;;567934;250;35276;-76
2023/10/04 02:45:24;;;;;;;7.53;1.50;;;11.80;99.90;11.10;100075;;;;572287;251;24157;-78
2023/10/04 02:47:49;;;;;;;1.00;0.90;;;11.70;99.90;11.10;100079;;;;572116;251;24122;-79
2023/10/04 02:50:18;;;;;;;1.97;0.93;;;11.70;99.90;11.10;100077;;;;563650;250;24110;-84
2023/10/04 02:52:45;;;;;;;4.10;1.63;;;11.80;99.90;11.10;100087;;;;563356;251;24107;-79
2023/10/04 02:55:23;;;;;;;5.73;0.93;;;11.80;99.90;11.10;100089;;;;570497;251;24102;-76
2023/10/04 02:57:41;;;;;;;7.37;1.57;;;11.80;99.90;11.10;100096;;;;557218;255;24245;-80
2023/10/04 03:00:12;;;;;;;3.10;1.47;;;11.80;99.90;11.20;100102;;;;562010;251;24105;-77
2023/10/04 03:02:37;;;;;;;6.43;1.23;;;11.90;99.90;11.20;100100;;;;563095;251;24095;-76
2023/10/04 03:05:06;;;;;;;3.00;1.13;;;11.90;99.90;11.30;100103;;;;563364;251;24159;-79
2023/10/04 03:07:33;;;;;;;1.50;1.40;;;12.00;99.90;11.40;100105;;;;571882;251;24079;-82
2023/10/04 03:10:01;;;;;;;7.53;1.17;;;12.00;99.90;11.40;100109;;;;571701;246;24108;-83
2023/10/04 03:12:28;;;;;;;1.20;0.93;;;12.10;99.90;11.50;100104;;;;572082;251;24131;-76
2023/10/04 03:14:57;;;;;;;3.63;1.10;;;12.40;99.90;11.50;100116;;;;572085;251;24121;-81
2023/10/04 03:17:25;;;;;;;4.00;1.10;;;12.20;99.90;11.50;100112;;;;571346;251;24114;-77
2023/10/04 03:19:53;;;;;;;4.87;1.07;;;12.20;99.90;11.60;100117;;;;562970;251;24090;-77
2023/10/04 03:22:23;;;;;;;1.80;1.10;;;12.20;99.90;11.50;100123;;;;571435;251;24091;-76
2023/10/04 03:24:53;;;;;;;5.40;1.33;;;12.20;99.90;11.50;100118;;;;571709;251;24086;-76
2023/10/04 03:27:24;;;;;;;4.27;1.23;;;12.20;99.90;11.40;100124;;;;565228;251;24101;-77
2023/10/04 03:29:48;;;;;;;8.70;1.33;;;12.20;99.90;11.50;100119;;;;571235;251;24090;-76
2023/10/04 03:32:18;;;;;;;1.57;1.13;;;12.20;99.90;11.50;100112;;;;571557;250;24183;-75
2023/10/04 03:34:44;;;;;;;3.50;1.37;;;12.20;99.90;11.40;100116;;;;571341;251;24098;-79
2023/10/04 03:37:14;;;;;;;1.50;1.03;;;12.10;99.90;11.40;100114;;;;571728;251;24105;-77
2023/10/04 03:39:41;;;;;;;7.60;1.70;;;12.00;99.90;11.30;100118;;;;571430;248;24105;-75
2023/10/04 03:42:11;;;;;;;3.20;1.10;;;12.00;99.90;11.30;100116;;;;571691;251;24145;-77
2023/10/04 03:44:36;;;;;;;3.07;1.07;;;12.00;99.90;11.30;100116;;;;571637;247;24088;-76
2023/10/04 03:47:07;;;;;;;4.47;1.23;;;12.00;99.90;11.30;100118;;;;571764;250;24116;-76
2023/10/04 03:49:32;;;;;;;3.03;1.73;;;12.00;99.90;11.20;100140;;;;571188;251;24091;-75
2023/10/04 03:52:00;;;;;;;5.90;1.57;;;11.90;99.90;11.20;100130;;;;571897;249;24131;-75
2023/10/04 03:54:32;;;;;;;5.00;1.90;;;11.90;99.90;11.10;100137;;;;568164;250;35364;-75
2023/10/04 03:56:57;;;;;;;5.33;1.47;;;11.80;99.90;11.10;100135;;;;563613;251;24076;-77
2023/10/04 03:59:25;;;;;;;3.37;1.23;;;11.80;99.90;11.10;100133;;;;572196;250;24109;-75
2023/10/04 04:01:53;;;;;;;5.57;1.40;;;11.70;99.90;11.00;100130;;;;572199;251;24099;-76
2023/10/04 04:04:21;;;;;;;2.33;1.40;;;11.70;99.90;11.10;100142;;;;571857;251;24072;-76
2023/10/04 04:06:49;;;;;;;5.27;1.13;;;11.70;99.90;11.10;100137;;;;563645;251;24101;-76
2023/10/04 04:09:17;;;;;;;4.53;1.50;;;11.80;99.90;11.20;100141;;;;571870;246;24184;-74
2023/10/04 04:11:47;;;;;;;2.07;0.63;;;11.80;99.90;11.30;100129;;;;572102;245;24117;-75
2023/10/04 04:14:18;;;;;;;2.07;0.87;;;11.90;99.90;11.30;100133;;;;571953;251;24110;-75
2023/10/04 04:16:43;;;;;;;2.20;1.10;;;12.00;99.90;11.40;100134;;;;571670;251;24098;-77
2023/10/04 04:19:09;;;;;;;1.00;0.90;;;12.10;99.90;11.50;100143;;;;571661;250;24160;-76
2023/10/04 04:21:37;;;;;;;3.97;0.93;;;12.10;99.90;11.50;100142;;;;571661;251;24107;-77
2023/10/04 04:24:08;;;;;;;0.73;0.67;;;12.20;99.90;11.60;100147;;;;571787;251;24113;-80
2023/10/04 04:26:34;;;;;;;2.10;0.80;;;12.30;99.90;11.60;100151;;;;571357;251;24123;-82
2023/10/04 04:29:03;;;;;;;6.63;1.60;;;12.30;99.90;11.60;100166;;;;571460;251;24158;-76
2023/10/04 04:31:31;;;;;;;4.23;0.70;;;12.30;99.90;11.60;100167;;;;571487;248;24156;-75
2023/10/04 04:34:00;;;;;;;2.90;1.00;;;12.30;99.90;11.60;100170;;;;571369;247;24164;-77
2023/10/04 04:36:27;;;;;;;2.10;1.10;;;12.30;99.90;11.60;100160;;;;571481;251;24083;-76
2023/10/04 04:38:55;;;;;;;2.80;1.07;;;12.20;99.90;11.60;100167;;;;571414;251;24094;-82
2023/10/04 04:41:25;;;;;;;2.37;1.30;;;12.20;99.90;11.60;100166;;;;571383;251;24129;-79
2023/10/04 04:43:51;;;;;;;6.93;1.60;;;12.20;99.90;11.60;100164;;;;571693;251;24123;-83
2023/10/04 04:46:19;;;;;;;3.33;0.97;;;12.20;99.90;11.50;100154;;;;563551;251;24079;-82
2023/10/04 04:48:50;;;;;;;3.03;0.90;;;12.20;99.90;11.50;100162;;;;572186;251;24155;-75
2023/10/04 04:51:17;;;;;;;3.60;1.33;;;12.20;99.90;11.60;100168;;;;562995;251;24138;-76
2023/10/04 04:53:43;;;;;;;2.77;1.27;;;12.20;99.90;11.60;100164;;;;563295;251;24176;-76
2023/10/04 04:56:18;;;;;;;6.43;1.40;;;12.20;99.90;11.50;100168;;;;565837;251;24091;-74
2023/10/04 04:58:44;;;;;;;1.63;1.30;;;12.20;99.90;11.50;100162;;;;571263;251;24111;-79
2023/10/04 05:01:13;;;;;;;4.50;1.67;;;12.20;99.90;11.50;100170;;;;557197;251;39320;-85
2023/10/04 05:03:44;;;;;;;5.80;1.33;;;12.20;99.90;11.50;100168;;;;571854;249;24112;-85
2023/10/04 05:06:16;;;;;;;2.80;1.37;;;12.20;99.90;11.50;100171;;;;572059;251;25172;-83
2023/10/04 05:08:38;;;;;;;4.23;1.43;;;12.20;99.90;11.50;100177;;;;569970;247;24187;-77
2023/10/04 05:11:12;;;;;;;4.93;1.50;;;12.20;99.90;11.60;100191;;;;571053;247;24097;-76
2023/10/04 05:13:37;;;;;;;7.30;1.67;;;12.20;99.90;11.70;100194;;;;562424;252;24160;-76
2023/10/04 05:16:05;;;;;;;4.83;0.90;;;12.30;99.90;11.80;100197;;;;570951;250;24163;-77
2023/10/04 05:18:33;;;;;;;6.00;1.00;;;12.50;99.90;12.00;100203;;;;572766;251;24126;-80
2023/10/04 05:21:02;;;;;;;4.27;1.00;;;12.60;99.90;12.10;100208;;;;564225;250;24173;-80
2023/10/04 05:23:32;;;;;;;6.00;1.57;;;12.70;99.90;12.10;100211;;;;572480;251;24137;-81
2023/10/04 05:25:57;;;;;;;7.10;1.20;;;12.80;99.90;12.20;100199;;;;562470;252;24121;-83
2023/10/04 05:28:24;;;;;;;4.17;1.30;;;12.80;99.90;12.20;100193;;;;562712;251;24082;-76
2023/10/04 05:30:52;;;;;;;3.50;1.30;;;12.90;99.90;12.30;100192;;;;571761;251;24135;-76
2023/10/04 05:33:23;;;;;;;5.83;1.40;;;12.90;99.90;12.30;100179;;;;571673;251;24141;-76
2023/10/04 05:35:52;;;;;;;6.97;1.40;;;12.90;99.90;12.30;100183;;;;562778;251;24156;-76
2023/10/04 05:38:19;;;;;;;6.37;1.60;;;13.00;99.90;12.30;100197;;;;562770;251;24118;-75
2023/10/04 05:40:50;;;;;;;3.60;1.53;;;13.00;99.90;12.30;100197;;;;571597;251;24079;-76
2023/10/04 05:43:16;;;;;;;1.73;1.23;;;13.00;99.90;12.30;100188;;;;562781;251;24086;-77
2023/10/04 05:45:46;;;;;;;11.90;1.90;;;13.00;99.90;12.30;100198;;;;562857;251;24145;-78
2023/10/04 05:48:11;;;;;;;5.07;1.70;;;13.00;99.90;12.40;100199;;;;563036;251;26287;-77
2023/10/04 05:50:40;;;;;;;5.10;1.93;;;13.10;99.90;12.50;100203;;;;571871;251;24142;-78
2023/10/04 05:53:08;;;;;;;5.90;1.40;;;13.10;99.90;12.60;100202;;;;562917;251;24093;-76
2023/10/04 05:55:36;;;;;;;5.63;1.73;;;13.20;99.90;12.60;100202;;;;571475;251;24083;-78
2023/10/04 05:58:07;;;;;;;5.50;1.40;;;13.30;99.90;12.70;100215;;;;571417;248;24079;-76
2023/10/04 06:00:42;;;;;;;1.50;1.10;;;13.30;99.90;12.70;100233;;;;571198;251;24146;-76
2023/10/04 06:03:04;;;;;;;1.40;1.10;;;13.40;99.90;12.80;100238;;;;570875;251;24137;-82
2023/10/04 06:05:31;;;;;;;4.10;1.27;;;13.50;99.90;12.90;100236;;;;562950;251;24146;-80
2023/10/04 06:08:01;;;;;;;5.10;1.47;;;13.60;99.90;12.90;100242;;;;571704;251;24119;-78
2023/10/04 06:10:29;;;;;;;3.57;1.23;;;13.60;99.90;13.00;100240;;;;571253;247;24110;-78
2023/10/04 06:12:57;;;;;;;2.37;1.27;;;13.60;99.90;13.00;100245;;;;571626;250;24188;-77
2023/10/04 06:15:24;;;;;;;4.10;1.53;;;13.70;99.90;13.10;100241;;;;563947;251;25265;-80
2023/10/04 06:17:50;;;;;;;4.83;1.30;;;13.70;99.90;13.10;100247;;;;564834;251;24134;-76
2023/10/04 06:20:33;;;;;;;3.07;1.27;;;13.70;99.90;13.00;100246;;;;573304;251;24145;-80
2023/10/04 06:23:00;;;;;;;5.10;1.07;;;13.70;99.90;13.00;100249;;;;564344;251;24102;-76
2023/10/04 06:25:32;;;;;;;6.17;1.30;;;13.60;99.90;12.90;100251;;;;572232;250;24091;-76
2023/10/04 06:27:57;;;;;;;2.73;1.10;;;13.60;99.90;13.00;100249;;;;559976;252;24158;-78
2023/10/04 06:30:26;;;;;;;11.43;1.63;;;13.60;99.90;13.00;100244;;;;570897;251;24118;-77
2023/10/04 06:32:55;;;;;;;3.63;1.03;;;13.70;99.90;13.10;100247;;;;563286;251;24134;-82
2023/10/04 06:35:23;;;;;;;7.93;1.30;;;13.80;99.90;13.20;100249;;;;571871;251;24098;-76
2023/10/04 06:37:54;;;;;;;4.57;1.50;;;13.80;99.90;13.30;100253;;;;565946;251;24158;-75
2023/10/04 06:40:23;;;;;;;7.77;1.77;;;14.00;99.90;13.40;100262;;;;563602;251;24093;-75
2023/10/04 06:42:52;;;;;;;2.67;1.50;;;14.10;99.90;13.50;100258;;;;570960;251;24159;-76
2023/10/04 06:45:23;;;;;;;4.20;0.97;;;14.20;99.90;13.60;100254;;;;549308;257;24192;-75
2023/10/04 06:47:52;;;;;;;3.00;1.40;;;14.20;99.90;13.60;100267;;;;545271;260;24221;-74
2023/10/04 06:50:19;;;;;;;7.10;1.33;;;14.20;99.90;13.70;100261;;;;552424;256;24147;-74
2023/10/04 06:52:50;;;;;;;3.97;1.33;;;14.30;99.90;13.70;100269;;;;572435;251;24105;-75
2023/10/04 06:55:15;;;;;;;1.97;1.10;;;14.30;99.90;13.70;100270;;;;573115;248;24149;-76
2023/10/04 06:57:45;;;;;;;7.90;1.50;;;14.30;99.90;13.80;100270;;;;563857;251;24114;-76
2023/10/04 07:00:17;;;;;;;1.40;1.30;;;14.40;99.90;13.90;100275;;;;563454;251;24130;-78
2023/10/04 07:03:03;;;;;;;6.13;1.57;;;14.50;99.90;14.00;100272;;;;561486;251;24120;-81
2023/10/04 07:05:26;;;;;;;2.60;1.53;;;14.60;99.90;14.10;100283;;;;570117;251;24122;-76
2023/10/04 07:07:57;;;;;;;7.27;1.30;;;14.70;99.90;14.20;100286;;;;570854;251;24103;-84
2023/10/04 07:10:23;;;;;;;9.20;2.10;;;14.80;99.90;14.20;100284;;;;564263;251;24131;-83
2023/10/04 07:12:57;;;;;;;5.40;1.40;;;14.90;99.90;14.30;100290;;;;572774;250;24163;-82
2023/10/04 07:15:28;;;;;;;4.37;1.40;;;14.90;99.90;14.50;100295;;;;562830;252;24143;-79
2023/10/04 07:17:54;;;;;;;5.30;1.40;;;15.20;99.90;14.70;100294;;;;563441;251;24090;-75
2023/10/04 07:20:24;;;;;;;7.53;1.73;;;15.30;99.90;14.70;100296;;;;572590;250;25118;-79
2023/10/04 07:22:51;;;;;;;5.13;1.70;;;15.30;99.90;14.80;100305;;;;572549;247;25179;-78
2023/10/04 07:25:18;;;;;;;3.93;1.50;;;15.40;99.90;15.00;100305;;;;573130;250;24098;-78
2023/10/04 07:27:47;;;;;;;2.30;1.30;;;15.90;99.90;15.40;100306;;;;573407;249;24149;-82
2023/10/04 07:30:15;;;;;;;2.40;1.27;;;15.90;99.90;15.70;100309;;;;573296;246;24117;-79
2023/10/04 07:32:46;;;;;;;4.40;1.80;;;16.20;99.90;16.20;100321;;;;568036;246;35266;-81
2023/10/04 07:35:12;;;;;;;8.30;1.63;;;16.70;99.90;16.40;100314;;;;564153;251;24140;-76
2023/10/04 07:37:42;;;;;;;2.43;1.50;;;17.00;99.90;16.40;100324;;;;572537;246;24116;-78
2023/10/04 07:40:09;;;;;;;4.53;1.40;;;17.00;99.90;16.30;100337;;;;563759;251;24097;-76
2023/10/04 07:42:38;;;;;;;2.43;1.27;;;16.90;99.90;16.20;100339;;;;564023;251;24101;-75
2023/10/04 07:45:10;;;;;;;2.23;1.10;;;16.90;99.90;16.40;100330;;;;572468;247;24188;-79
2023/10/04 07:47:37;;;;;;;2.13;1.40;;;17.00;99.90;16.50;100339;;;;563172;251;24102;-79
2023/10/04 07:50:05;;;;;;;8.20;1.60;;;17.10;99.90;16.70;100339;;;;571652;248;24151;-84
2023/10/04 07:52:34;;;;;;;1.77;1.07;;;17.40;99.90;16.80;100337;;;;563534;251;24111;-79
2023/10/04 07:55:05;;;;;;;7.13;1.60;;;17.40;99.90;16.70;100334;;;;572098;251;24150;-79
2023/10/04 07:57:31;;;;;;;4.23;1.43;;;17.30;99.90;17.20;100342;;;;571675;251;24092;-75
2023/10/04 07:59:58;;;;;;;4.70;1.27;;;17.70;99.90;17.50;100340;;;;571701;251;24093;-84
2023/10/04 08:02:26;;;;;;;8.10;1.63;;;18.00;99.90;18.00;100355;;;;571657;251;24092;-78
2023/10/04 08:04:54;;;;;;;4.27;1.50;;;18.40;99.90;18.30;100350;;;;571564;251;24106;-83
2023/10/04 08:07:22;;;;;;;1.80;1.30;;;18.90;99.90;18.30;100350;;;;571476;251;24142;-80
2023/10/04 08:09:50;;;;;;;3.20;1.63;;;18.90;99.90;19.20;100352;;;;571551;246;23130;-85
2023/10/04 08:12:19;;;;;;;6.57;1.90;;;19.70;99.90;19.90;100357;;;;571302;251;24177;-82
2023/10/04 08:14:47;;;;;;;4.67;1.57;;;20.60;99.90;19.90;100357;;;;571877;251;23097;-79
2023/10/04 08:17:16;;;;;;;5.07;1.30;;;20.50;99.90;19.90;100362;;;;572025;251;24135;-76
2023/10/04 08:19:42;;;;;;;7.80;1.83;;;20.60;99.90;20.00;100362;;;;571998;247;24112;-77
2023/10/04 08:22:10;;;;;;;2.73;1.40;;;20.60;99.90;19.70;100371;;;;572312;248;24102;-76
2023/10/04 08:24:38;;;;;;;7.93;1.87;;;20.50;99.90;19.40;100375;;;;572325;251;24084;-77
2023/10/04 08:27:06;;;;;;;3.10;1.47;;;20.20;99.90;19.10;100370;;;;572025;251;24075;-76
2023/10/04 08:29:36;;;;;;;1.63;1.20;;;19.90;99.90;19.00;100377;;;;571823;251;24143;-75
2023/10/04 08:32:03;;;;;;;8.07;1.87;;;19.70;99.90;18.80;100376;;;;565409;251;23161;-75
2023/10/04 08:34:30;;;;;;;3.73;2.13;;;19.50;99.90;18.60;100373;;;;565983;250;24200;-75
2023/10/04 08:36:58;;;;;;;4.03;1.60;;;19.30;99.90;18.60;100377;;;;571854;251;23127;-78
2023/10/04 08:39:30;;;;;;;3.93;1.70;;;19.10;99.90;18.50;100362;;;;573329;249;23179;-75
2023/10/04 08:41:55;;;;;;;3.40;1.53;;;19.10;99.90;18.80;100385;;;;572486;247;23161;-76
2023/10/04 08:44:23;;;;;;;3.70;1.50;;;19.30;99.90;19.10;100385;;;;572690;250;24150;-82
2023/10/04 08:46:53;;;;;;;4.10;2.10;;;19.60;99.90;19.30;100382;;;;572272;251;24163;-80
2023/10/04 08:49:19;;;;;;;4.37;1.87;;;19.80;99.90;19.10;100384;;;;571039;251;24120;-81
2023/10/04 08:51:46;;;;;;;2.90;1.50;;;19.80;99.90;18.70;100393;;;;567290;249;24089;-77
2023/10/04 08:54:14;;;;;;;2.47;1.50;;;19.50;99.90;18.50;100396;;;;567804;251;23127;-79
2023/10/04 08:56:58;;;;;;;5.17;1.60;;;19.20;99.90;18.60;100399;;;;562843;251;24085;-79
2023/10/04 08:59:31;;;;;;;4.93;1.57;;;19.30;99.90;18.70;100409;;;;571292;251;24131;-78
2023/10/04 09:01:55;;;;;;;5.87;1.50;;;19.30;99.90;18.60;100397;;;;565175;251;23121;-76
2023/10/04 09:04:27;;;;;;;3.47;1.77;;;19.20;99.90;18.50;100409;;;;563187;250;24127;-84
2023/10/04 09:06:55;;;;;;;2.57;1.40;;;19.10;99.90;18.50;100401;;;;563357;251;24108;-80
2023/10/04 09:09:19;;;;;;;4.60;1.20;;;19.10;99.90;19.30;100396;;;;562665;251;23120;-79
2023/10/04 09:11:50;;;;;;;5.63;1.53;;;19.70;99.90;20.40;100403;;;;571719;251;24083;-81
2023/10/04 09:14:15;;;;;;;5.00;1.97;;;20.80;99.90;21.00;100400;;;;571494;251;24212;-75
2023/10/04 09:16:43;;;;;;;3.77;1.50;;;21.50;99.90;21.00;100413;;;;571450;247;24138;-81
2023/10/04 09:19:17;;;;;;;2.13;1.47;;;21.60;99.90;20.80;100419;;;;571946;247;24116;-78
2023/10/04 09:21:43;;;;;;;5.00;1.60;;;21.50;99.90;20.50;100420;;;;563400;251;24131;-76
2023/10/04 09:24:10;;;;;;;4.27;2.37;;;21.30;99.90;20.10;100411;;;;572095;251;23108;-74
2023/10/04 09:26:50;;;;;;;3.13;1.70;;;20.90;99.90;19.70;100407;;;;563253;251;23113;-75
2023/10/04 09:29:33;;;;;;;3.03;1.47;;;20.60;99.90;19.20;100415;;;;570476;247;24146;-76
2023/10/04 09:32:04;;;;;;;3.57;1.57;;;20.00;99.90;18.80;100403;;;;563848;251;24123;-75
2023/10/04 09:34:29;;;;;;;5.70;1.67;;;19.60;99.90;18.50;100413;;;;572284;251;23130;-75
2023/10/04 09:36:59;;;;;;;6.00;1.60;;;19.20;99.90;18.20;100414;;;;564068;251;24406;-74
2023/10/04 09:39:24;;;;;;;1.40;1.20;;;18.90;99.90;18.00;100430;;;;572531;250;24107;-74
2023/10/04 09:41:55;;;;;;;5.20;2.00;;;18.60;99.90;17.80;100427;;;;566675;251;24118;-77
2023/10/04 09:44:24;;;;;;;3.27;1.40;;;18.30;99.90;17.60;100426;;;;566336;251;24103;-74
2023/10/04 09:46:59;;;;;;;7.53;1.80;;;18.20;99.90;17.90;100443;;;;564051;251;24105;-74
2023/10/04 09:49:31;;;;;;;1.37;1.27;;;18.40;99.90;18.10;100428;;;;572378;250;24146;-74
2023/10/04 09:51:57;;;;;;;2.63;1.50;;;18.60;99.90;18.20;100435;;;;571861;251;24191;-75
2023/10/04 09:54:28;;;;;;;4.83;1.50;;;18.80;99.90;18.30;100443;;;;572224;252;24142;-74
2023/10/04 09:56:55;;;;;;;2.03;1.37;;;18.90;99.90;18.30;100448;;;;563461;252;24105;-79
2023/10/04 09:59:23;;;;;;;5.07;1.40;;;18.90;99.90;18.00;100446;;;;562886;252;24213;-76
2023/10/04 10:01:58;;;;;;;4.77;1.63;;;18.70;99.90;17.90;100452;;;;569568;251;23120;-78
2023/10/04 10:04:31;;;;;;;4.20;1.50;;;18.50;99.90;18.00;100448;;;;565041;251;24116;-76
2023/10/04 10:07:16;;;;;;;1.83;1.20;;;18.60;99.90;17.90;100456;;;;572696;251;24098;-77
2023/10/04 10:09:48;;;;;;;4.37;1.67;;;18.60;99.90;17.90;100465;;;;563564;251;24148;-78
2023/10/04 10:12:15;;;;;;;2.67;1.67;;;18.50;99.90;18.20;100460;;;;563273;251;24124;-87
2023/10/04 10:14:43;;;;;;;2.97;1.33;;;18.70;99.90;18.60;100463;;;;562558;252;24092;-82
2023/10/04 10:17:11;;;;;;;6.10;1.97;;;19.10;99.90;19.30;100466;;;;571982;249;24135;-86
2023/10/04 10:19:42;;;;;;;4.90;1.93;;;19.80;99.90;19.90;100457;;;;564706;248;24130;-81
2023/10/04 10:22:10;;;;;;;4.83;1.97;;;20.60;99.90;19.90;100476;;;;561232;252;23168;-80
2023/10/04 10:24:34;;;;;;;3.53;1.90;;;20.70;99.90;20.00;100483;;;;556842;248;24103;-81
2023/10/04 10:27:02;;;;;;;4.60;1.50;;;20.70;99.90;20.30;100486;;;;563799;251;24089;-83
2023/10/04 10:29:34;;;;;;;4.00;1.93;;;21.30;99.90;20.50;100494;;;;564234;251;24164;-81
2023/10/04 10:32:06;;;;;;;3.30;1.97;;;21.20;99.90;20.40;100503;;;;563927;251;24091;-83
2023/10/04 10:34:31;;;;;;;2.80;1.60;;;20.90;99.90;20.10;100498;;;;568429;246;24072;-82
2023/10/04 10:37:22;;;;;;;3.60;1.90;;;20.50;99.90;19.70;100492;;;;559184;249;35602;-80
2023/10/04 10:39:50;;;;;;;2.43;1.70;;;20.50;99.90;19.20;100481;;;;563939;252;24106;-77
2023/10/04 10:42:18;;;;;;;2.23;1.67;;;20.00;99.90;19.00;100481;;;;560012;249;24133;-79
2023/10/04 10:44:45;;;;;;;2.77;1.70;;;19.70;99.90;18.80;100485;;;;569940;249;23149;-85
2023/10/04 10:47:23;;;;;;;3.60;1.30;;;19.50;99.90;18.70;100490;;;;569983;249;24119;-86
2023/10/04 10:50:12;;;;;;;2.97;1.60;;;19.40;99.90;18.60;100491;;;;578374;248;23131;-82
2023/10/04 10:52:41;;;;;;;4.43;1.95;;;19.10;99.90;18.60;100485;;;;562094;249;46253;-80
2023/10/04 10:55:21;;;;;;;2.57;1.80;;;19.10;99.90;18.70;100483;;;;568325;248;23133;-85
2023/10/04 10:57:38;;;;;;;2.63;1.40;;;19.30;99.90;18.90;100496;;;;572229;247;24117;-85
2023/10/04 11:00:25;;;;;;;6.17;1.70;;;19.40;99.90;19.00;100486;;;;567723;249;24171;-79
2023/10/04 11:02:55;;;;;;;2.00;1.13;;;19.50;99.90;18.90;100483;;;;574508;246;24085;-74
2023/10/04 11:05:22;;;;;;;3.63;1.47;;;19.50;99.90;18.90;100492;;;;570546;248;23120;-81
2023/10/04 11:07:51;;;;;;;6.47;1.60;;;19.50;99.90;18.90;100489;;;;571281;251;24088;-79
2023/10/04 11:10:21;;;;;;;6.57;1.63;;;19.50;99.90;18.90;100502;;;;552590;256;24197;-82
2023/10/04 11:12:46;;;;;;;5.70;1.70;;;19.50;99.90;18.90;100492;;;;561098;252;24170;-80
2023/10/04 11:15:17;;;;;;;4.60;1.80;;;19.40;99.90;18.80;100504;;;;558999;252;23232;-87
2023/10/04 11:17:43;;;;;;;3.03;1.13;;;19.40;99.90;18.80;100506;;;;560527;253;24232;-77